Latest Weather Observations for Wattamolla

IDN60901

Issued at 5:31 am EDT Thursday 6 October 2022 (issued every 10 minutes, with the page automatically refreshed every 10 minutes)

About weather observations | Map of Sydney area stations | Latest observations for Sydney area | Other Formats
Station Details ID: 066208 Name: WATTAMOLLA AWS Lat: -34.14 Lon: 151.12 Height: 44.0 m
Data from the previous 72 hours. | See also: Recent months at Wattamolla
Date/Time
EDT
Temp
°C
App
Temp
°C
Dew
Point
°C
Rel
Hum
%
Delta-T
°C
Wind Press
QNH
hPa
Press
MSL
hPa
Rain since
9am
mm
Dir  Spd
km/h
Gust
km/h
Spd
kts
Gust
kts
06/05:30am - - - - - NE 28 43 15 23 - - -
06/05:00am - - - - - ENE 24 37 13 20 - - -
06/04:30am - - - - - NE 20 33 11 18 - - -
06/04:00am - - - - - NE 28 41 15 22 - - -
06/03:30am - - - - - NE 28 39 15 21 - - -
06/03:00am - - - - - NE 30 44 16 24 - - -
06/02:30am - - - - - ENE 28 44 15 24 - - -
06/02:00am - - - - - ENE 28 43 15 23 - - -
06/01:30am - - - - - NE 30 41 16 22 - - -
06/01:00am - - - - - ENE 32 44 17 24 - - -
06/12:36am - - - - - ENE 30 52 16 28 - - -
06/12:30am - - - - - ENE 28 39 15 21 - - -
06/12:05am - - - - - ENE 30 48 16 26 - - -
06/12:00am - - - - - ENE 32 48 17 26 - - -
 
Date/Time
EDT
Temp
°C
App
Temp
°C
Dew
Point
°C
Rel
Hum
%
Delta-T
°C
Wind Press
QNH
hPa
Press
MSL
hPa
Rain since
9am
mm
Dir  Spd
km/h
Gust
km/h
Spd
kts
Gust
kts
05/11:57pm - - - - - ENE 30 48 16 26 - - -
05/11:30pm - - - - - ENE 28 39 15 21 - - -
05/11:00pm - - - - - ENE 26 37 14 20 - - -
05/10:30pm - - - - - E 26 39 14 21 - - -
05/10:00pm - - - - - SE 32 44 17 24 - - -
05/09:34pm - - - - - ESE 28 48 15 26 - - -
05/09:30pm - - - - - ESE 24 39 13 21 - - -
05/09:01pm - - - - - SE 30 50 16 27 - - -
05/09:00pm - - - - - SE 30 44 16 24 - - -
05/08:54pm - - - - - SE 28 48 15 26 - - -
05/08:30pm - - - - - SE 32 46 17 25 - - -
05/08:00pm - - - - - SE 30 43 16 23 - - -
05/07:55pm - - - - - SE 30 48 16 26 - - -
05/07:30pm - - - - - SE 32 48 17 26 - - -
05/07:00pm - - - - - SE 32 46 17 25 - - -
05/06:30pm - - - - - SE 28 44 15 24 - - -
05/06:09pm - - - - - ESE 28 48 15 26 - - -
05/06:00pm - - - - - ESE 28 43 15 23 - - -
05/05:33pm - - - - - SE 30 48 16 26 - - -
05/05:30pm - - - - - ESE 28 41 15 22 - - -
05/05:00pm - - - - - E 24 37 13 20 - - -
05/04:30pm - - - - - E 28 46 15 25 - - -
05/04:26pm - - - - - E 28 46 15 25 - - -
05/04:00pm - - - - - E 24 37 13 20 - - -
05/03:36pm - - - - - E 32 50 17 27 - - -
05/03:30pm - - - - - E 30 43 16 23 - - -
05/03:15pm - - - - - E 28 46 15 25 - - -
05/03:00pm - - - - - E 28 43 15 23 - - -
05/02:30pm - - - - - E 24 37 13 20 - - -
05/02:00pm - - - - - ESE 24 37 13 20 - - -
05/01:30pm - - - - - ESE 22 37 12 20 - - -
05/01:00pm - - - - - E 24 33 13 18 - - -
05/12:30pm - - - - - E 24 39 13 21 - - -
05/12:00pm - - - - - ESE 22 32 12 17 - - -
05/11:30am - - - - - SE 28 44 15 24 - - -
05/11:03am - - - - - SE 30 48 16 26 - - -
05/11:00am - - - - - SE 28 41 15 22 - - -
05/10:30am - - - - - ESE 26 44 14 24 - - -
05/10:00am - - - - - E 28 39 15 21 - - -
05/09:30am - - - - - ESE 24 44 13 24 - - -
05/09:00am - - - - - ESE 20 32 11 17 - - -
05/08:30am - - - - - SE 24 35 13 19 - - -
05/08:27am - - - - - SE 28 46 15 25 - - -
05/08:00am - - - - - SE 26 35 14 19 - - -
05/07:30am - - - - - SE 32 37 17 20 - - -
05/07:00am - - - - - SE 33 39 18 21 - - -
05/06:30am - - - - - SE 35 43 19 23 - - -
05/06:00am - - - - - SE 33 39 18 21 - - -
05/05:30am - - - - - SSE 32 39 17 21 - - -
05/05:00am - - - - - SSE 32 39 17 21 - - -
05/04:30am - - - - - SSE 33 39 18 21 - - -
05/04:00am - - - - - SSE 33 39 18 21 - - -
05/03:30am - - - - - SE 32 39 17 21 - - -
05/03:00am - - - - - SSE 30 37 16 20 - - -
05/02:30am - - - - - SE 33 41 18 22 - - -
05/02:00am - - - - - SSE 37 46 20 25 - - -
05/01:30am - - - - - SE 41 48 22 26 - - -
05/01:00am - - - - - SSE 39 50 21 27 - - -
05/12:30am - - - - - SSE 39 48 21 26 - - -
05/12:00am - - - - - SSE 43 50 23 27 - - -
 
Date/Time
EDT
Temp
°C
App
Temp
°C
Dew
Point
°C
Rel
Hum
%
Delta-T
°C
Wind Press
QNH
hPa
Press
MSL
hPa
Rain since
9am
mm
Dir  Spd
km/h
Gust
km/h
Spd
kts
Gust
kts
04/11:30pm - - - - - SSE 43 50 23 27 - - -
04/11:00pm - - - - - SSE 32 37 17 20 - - -
04/10:30pm - - - - - SE 30 33 16 18 - - -
04/10:00pm - - - - - SSE 32 35 17 19 - - -
04/09:30pm - - - - - SSE 30 37 16 20 - - -
04/09:00pm - - - - - SSE 30 37 16 20 - - -
04/08:30pm - - - - - SSE 32 41 17 22 - - -
04/08:00pm - - - - - SSE 24 32 13 17 - - -
04/07:30pm - - - - - SSE 26 33 14 18 - - -
04/07:00pm - - - - - SSE 26 33 14 18 - - -
04/06:30pm - - - - - SSE 28 33 15 18 - - -
04/06:00pm - - - - - SSE 26 33 14 18 - - -
04/05:30pm - - - - - SSE 26 33 14 18 - - -
04/05:00pm - - - - - SSE 30 35 16 19 - - -
04/04:30pm - - - - - SSE 26 32 14 17 - - -
04/04:00pm - - - - - SSE 20 28 11 15 - - -
04/03:30pm - - - - - SSE 20 26 11 14 - - -
04/03:00pm - - - - - SSE 19 26 10 14 - - -
04/02:30pm - - - - - SSE 24 32 13 17 - - -
04/02:00pm - - - - - SSE 13 19 7 10 - - -
04/01:30pm - - - - - SE 2 7 1 4 - - -
04/01:00pm - - - - - E 13 22 7 12 - - -
04/12:30pm - - - - - ENE 19 28 10 15 - - -
04/12:00pm - - - - - NNE 11 22 6 12 - - -
04/11:30am - - - - - N 11 17 6 9 - - -
04/11:00am - - - - - N 15 24 8 13 - - -
04/10:30am - - - - - CALM 0 7 0 4 - - -
04/10:00am - - - - - N 4 11 2 6 - - -
04/09:30am - - - - - NNW 4 9 2 5 - - -
04/09:00am - - - - - NW 9 20 5 11 - - -
04/08:30am - - - - - NW 7 19 4 10 - - -
04/08:00am - - - - - CALM 0 6 0 3 - - -
04/07:30am - - - - - CALM 0 6 0 3 - - -
04/07:00am - - - - - WNW 11 17 6 9 - - -
04/06:30am - - - - - NNW 2 7 1 4 - - -
04/06:00am - - - - - NW 9 15 5 8 - - -
04/05:30am - - - - - NW 7 17 4 9 - - -
04/05:00am - - - - - NNW 7 13 4 7 - - -
04/04:30am - - - - - NNW 6 15 3 8 - - -
04/04:00am - - - - - NNW 6 13 3 7 - - -
04/03:30am - - - - - NNW 9 17 5 9 - - -
04/03:00am - - - - - N 7 13 4 7 - - -
04/02:30am - - - - - NNW 4 9 2 5 - - -
04/02:00am - - - - - NW 13 20 7 11 - - -
04/01:30am - - - - - NW 13 19 7 10 - - -
04/01:00am - - - - - NW 13 20 7 11 - - -
04/12:30am - - - - - NNW 13 19 7 10 - - -
04/12:00am - - - - - NNW 11 15 6 8 - - -
 
Date/Time
EDT
Temp
°C
App
Temp
°C
Dew
Point
°C
Rel
Hum
%
Delta-T
°C
Wind Press
QNH
hPa
Press
MSL
hPa
Rain since
9am
mm
Dir  Spd
km/h
Gust
km/h
Spd
kts
Gust
kts
03/11:30pm - - - - - NNW 15 19 8 10 - - -
03/11:00pm - - - - - N 15 17 8 9 - - -
03/10:30pm - - - - - N 17 20 9 11 - - -
03/10:00pm - - - - - N 19 24 10 13 - - -
03/09:30pm - - - - - N 17 19 9 10 - - -
03/09:00pm - - - - - N 17 20 9 11 - - -
03/08:30pm - - - - - N 15 19 8 10 - - -
03/08:00pm - - - - - N 15 19 8 10 - - -
03/07:30pm - - - - - NNE 17 20 9 11 - - -
03/07:00pm - - - - - NNE 17 24 9 13 - - -
03/06:30pm - - - - - NNE 15 26 8 14 - - -
03/06:00pm - - - - - NE 19 28 10 15 - - -
03/05:30pm - - - - - NE 17 26 9 14 - - -
03/05:00pm - - - - - NE 19 28 10 15 - - -
03/04:30pm - - - - - NE 17 28 9 15 - - -
03/04:00pm - - - - - NE 17 26 9 14 - - -
03/03:30pm - - - - - NE 17 24 9 13 - - -
03/03:00pm - - - - - NE 17 24 9 13 - - -
03/02:30pm - - - - - ENE 13 19 7 10 - - -
03/02:00pm - - - - - E 11 17 6 9 - - -
03/01:30pm - - - - - E 9 15 5 8 - - -
03/01:00pm - - - - - ESE 9 15 5 8 - - -
03/12:30pm - - - - - SE 11 19 6 10 - - -
03/12:00pm - - - - - SSE 13 17 7 9 - - -
03/11:30am - - - - - SSE 13 19 7 10 - - -
03/11:00am - - - - - SSE 15 17 8 9 - - -
03/10:30am - - - - - SSE 11 15 6 8 - - -
03/10:00am - - - - - S 13 17 7 9 - - -
03/09:30am - - - - - S 7 13 4 7 - - -
03/09:00am - - - - - S 6 11 3 6 - - -
03/08:30am - - - - - S 2 9 1 5 - - -
03/08:00am - - - - - WSW 6 9 3 5 - - -
03/07:30am - - - - - WSW 7 11 4 6 - - -
03/07:00am - - - - - WSW 4 7 2 4 - - -
03/06:30am - - - - - W 4 9 2 5 - - -
03/06:00am - - - - - W 7 11 4 6 - - -

Latest Capital City Observations: Canberra | Sydney | Melbourne | Brisbane | Adelaide | Perth | Hobart | Darwin

Other formats

Comma delimited format used in spreadsheet applications
http://www.bom.gov.au/fwo/IDN60901/IDN60901.95752.axf

JavaScript Object Notation format (JSON) in row-major order
http://www.bom.gov.au/fwo/IDN60901/IDN60901.95752.json

Data quality

Most of these data are generated automatically and are frequently updated. Quality checks on data are not normally performed. It is possible for incorrect values to appear. Refer to information at About Latest Weather Observations and please check the disclaimer before using these data.